sensor_id;sensor_type;location;lat;lon;timestamp;P1;durP1;ratioP1;P2;durP2;ratioP2
61308;SDS011;47188;55.644;37.772;2022-08-21T00:00:55;57.58;;;44.55;;
61308;SDS011;47188;55.644;37.772;2022-08-21T00:03:21;53.63;;;44.78;;
61308;SDS011;47188;55.644;37.772;2022-08-21T00:05:48;59.65;;;44.33;;
61308;SDS011;47188;55.644;37.772;2022-08-21T00:08:18;54.00;;;43.90;;
61308;SDS011;47188;55.644;37.772;2022-08-21T00:10:45;58.42;;;44.25;;
61308;SDS011;47188;55.644;37.772;2022-08-21T00:13:11;54.75;;;43.40;;
61308;SDS011;47188;55.644;37.772;2022-08-21T00:15:38;56.47;;;44.78;;
61308;SDS011;47188;55.644;37.772;2022-08-21T00:18:05;59.50;;;44.00;;
61308;SDS011;47188;55.644;37.772;2022-08-21T00:20:32;53.53;;;43.90;;
61308;SDS011;47188;55.644;37.772;2022-08-21T00:22:59;58.33;;;46.33;;
61308;SDS011;47188;55.644;37.772;2022-08-21T00:25:25;57.95;;;47.47;;
61308;SDS011;47188;55.644;37.772;2022-08-21T00:27:52;59.22;;;45.50;;
61308;SDS011;47188;55.644;37.772;2022-08-21T00:30:19;60.22;;;47.28;;
61308;SDS011;47188;55.644;37.772;2022-08-21T00:32:46;60.67;;;47.00;;
61308;SDS011;47188;55.644;37.772;2022-08-21T00:35:14;59.72;;;46.42;;
61308;SDS011;47188;55.644;37.772;2022-08-21T00:37:41;59.00;;;46.83;;
61308;SDS011;47188;55.644;37.772;2022-08-21T00:40:10;62.08;;;46.13;;
61308;SDS011;47188;55.644;37.772;2022-08-21T00:42:38;58.95;;;46.95;;
61308;SDS011;47188;55.644;37.772;2022-08-21T00:45:04;62.38;;;46.42;;
61308;SDS011;47188;55.644;37.772;2022-08-21T00:47:30;60.20;;;45.28;;
61308;SDS011;47188;55.644;37.772;2022-08-21T00:49:56;56.65;;;45.38;;
61308;SDS011;47188;55.644;37.772;2022-08-21T00:52:25;57.63;;;44.53;;
61308;SDS011;47188;55.644;37.772;2022-08-21T00:54:52;59.67;;;45.20;;
61308;SDS011;47188;55.644;37.772;2022-08-21T00:57:21;56.08;;;46.08;;
61308;SDS011;47188;55.644;37.772;2022-08-21T00:59:52;60.15;;;45.50;;
61308;SDS011;47188;55.644;37.772;2022-08-21T01:02:20;58.97;;;44.88;;
61308;SDS011;47188;55.644;37.772;2022-08-21T01:04:46;60.95;;;46.28;;
61308;SDS011;47188;55.644;37.772;2022-08-21T01:07:12;57.83;;;46.55;;
61308;SDS011;47188;55.644;37.772;2022-08-21T01:09:38;62.15;;;45.67;;
61308;SDS011;47188;55.644;37.772;2022-08-21T01:12:04;55.03;;;44.80;;
61308;SDS011;47188;55.644;37.772;2022-08-21T01:14:31;60.22;;;44.88;;
61308;SDS011;47188;55.644;37.772;2022-08-21T01:16:57;59.20;;;45.78;;
61308;SDS011;47188;55.644;37.772;2022-08-21T01:19:28;55.22;;;45.67;;
61308;SDS011;47188;55.644;37.772;2022-08-21T01:21:54;51.90;;;40.88;;
61308;SDS011;47188;55.644;37.772;2022-08-21T01:24:21;52.42;;;42.85;;
61308;SDS011;47188;55.644;37.772;2022-08-21T01:26:47;55.08;;;42.53;;
61308;SDS011;47188;55.644;37.772;2022-08-21T01:31:48;49.25;;;41.28;;
61308;SDS011;47188;55.644;37.772;2022-08-21T01:34:14;50.17;;;39.58;;
61308;SDS011;47188;55.644;37.772;2022-08-21T01:36:41;50.85;;;39.20;;
61308;SDS011;47188;55.644;37.772;2022-08-21T01:39:07;50.08;;;39.28;;
61308;SDS011;47188;55.644;37.772;2022-08-21T01:41:33;52.72;;;38.97;;
61308;SDS011;47188;55.644;37.772;2022-08-21T01:43:59;51.13;;;38.03;;
61308;SDS011;47188;55.644;37.772;2022-08-21T01:46:25;49.38;;;38.58;;
61308;SDS011;47188;55.644;37.772;2022-08-21T01:48:50;49.65;;;37.30;;
61308;SDS011;47188;55.644;37.772;2022-08-21T01:51:16;53.85;;;37.75;;
61308;SDS011;47188;55.644;37.772;2022-08-21T01:53:42;49.20;;;38.78;;
61308;SDS011;47188;55.644;37.772;2022-08-21T01:56:09;48.42;;;39.58;;
61308;SDS011;47188;55.644;37.772;2022-08-21T01:58:36;49.28;;;39.17;;
61308;SDS011;47188;55.644;37.772;2022-08-21T02:01:02;48.35;;;37.83;;
61308;SDS011;47188;55.644;37.772;2022-08-21T02:03:29;49.78;;;37.53;;
61308;SDS011;47188;55.644;37.772;2022-08-21T02:05:55;51.05;;;36.50;;
61308;SDS011;47188;55.644;37.772;2022-08-21T02:08:21;46.08;;;37.17;;
61308;SDS011;47188;55.644;37.772;2022-08-21T02:10:48;49.13;;;37.00;;
61308;SDS011;47188;55.644;37.772;2022-08-21T02:13:16;45.25;;;37.05;;
61308;SDS011;47188;55.644;37.772;2022-08-21T02:15:43;50.05;;;37.65;;
61308;SDS011;47188;55.644;37.772;2022-08-21T02:18:09;49.00;;;38.03;;
61308;SDS011;47188;55.644;37.772;2022-08-21T02:20:36;51.22;;;39.00;;
61308;SDS011;47188;55.644;37.772;2022-08-21T02:23:05;51.05;;;38.33;;
61308;SDS011;47188;55.644;37.772;2022-08-21T02:25:32;51.83;;;37.67;;
61308;SDS011;47188;55.644;37.772;2022-08-21T02:27:58;48.65;;;36.33;;
61308;SDS011;47188;55.644;37.772;2022-08-21T02:30:27;49.53;;;36.75;;
61308;SDS011;47188;55.644;37.772;2022-08-21T02:32:54;49.03;;;37.15;;
61308;SDS011;47188;55.644;37.772;2022-08-21T02:35:22;46.85;;;37.92;;
61308;SDS011;47188;55.644;37.772;2022-08-21T02:37:50;46.20;;;37.63;;
61308;SDS011;47188;55.644;37.772;2022-08-21T02:40:18;47.47;;;37.08;;
61308;SDS011;47188;55.644;37.772;2022-08-21T02:42:46;48.95;;;37.30;;
61308;SDS011;47188;55.644;37.772;2022-08-21T02:45:12;49.03;;;37.03;;
61308;SDS011;47188;55.644;37.772;2022-08-21T02:47:39;52.28;;;37.15;;
61308;SDS011;47188;55.644;37.772;2022-08-21T02:50:06;47.15;;;36.95;;
61308;SDS011;47188;55.644;37.772;2022-08-21T02:52:32;46.70;;;35.80;;
61308;SDS011;47188;55.644;37.772;2022-08-21T02:54:59;49.33;;;37.13;;
61308;SDS011;47188;55.644;37.772;2022-08-21T02:57:25;49.13;;;37.75;;
61308;SDS011;47188;55.644;37.772;2022-08-21T02:59:51;45.22;;;37.15;;
61308;SDS011;47188;55.644;37.772;2022-08-21T03:02:17;52.30;;;35.35;;
61308;SDS011;47188;55.644;37.772;2022-08-21T03:04:42;49.55;;;38.17;;
61308;SDS011;47188;55.644;37.772;2022-08-21T03:07:08;51.92;;;38.90;;
61308;SDS011;47188;55.644;37.772;2022-08-21T03:09:34;48.38;;;37.58;;
61308;SDS011;47188;55.644;37.772;2022-08-21T03:11:59;48.35;;;39.35;;
61308;SDS011;47188;55.644;37.772;2022-08-21T03:14:25;56.53;;;39.28;;
61308;SDS011;47188;55.644;37.772;2022-08-21T03:16:51;53.15;;;38.92;;
61308;SDS011;47188;55.644;37.772;2022-08-21T03:19:17;50.22;;;39.10;;
61308;SDS011;47188;55.644;37.772;2022-08-21T03:21:43;49.70;;;39.33;;
61308;SDS011;47188;55.644;37.772;2022-08-21T03:24:08;49.78;;;40.00;;
61308;SDS011;47188;55.644;37.772;2022-08-21T03:26:34;50.40;;;39.67;;
61308;SDS011;47188;55.644;37.772;2022-08-21T03:29:00;51.42;;;41.60;;
61308;SDS011;47188;55.644;37.772;2022-08-21T03:31:26;48.78;;;40.03;;
61308;SDS011;47188;55.644;37.772;2022-08-21T03:33:56;48.10;;;40.55;;
61308;SDS011;47188;55.644;37.772;2022-08-21T03:36:22;56.95;;;43.13;;
61308;SDS011;47188;55.644;37.772;2022-08-21T03:38:49;54.47;;;41.67;;
61308;SDS011;47188;55.644;37.772;2022-08-21T03:41:15;56.90;;;43.40;;
61308;SDS011;47188;55.644;37.772;2022-08-21T03:43:41;54.35;;;42.30;;
61308;SDS011;47188;55.644;37.772;2022-08-21T03:46:07;55.38;;;42.97;;
61308;SDS011;47188;55.644;37.772;2022-08-21T03:48:33;54.40;;;44.05;;
61308;SDS011;47188;55.644;37.772;2022-08-21T03:51:00;52.78;;;44.17;;
61308;SDS011;47188;55.644;37.772;2022-08-21T03:53:26;55.55;;;44.13;;
61308;SDS011;47188;55.644;37.772;2022-08-21T03:55:52;57.90;;;44.38;;
61308;SDS011;47188;55.644;37.772;2022-08-21T03:58:20;56.45;;;44.80;;
61308;SDS011;47188;55.644;37.772;2022-08-21T04:00:49;57.67;;;44.65;;
61308;SDS011;47188;55.644;37.772;2022-08-21T04:03:16;56.65;;;46.50;;
61308;SDS011;47188;55.644;37.772;2022-08-21T04:05:43;61.40;;;46.78;;
61308;SDS011;47188;55.644;37.772;2022-08-21T04:08:11;61.55;;;47.88;;
61308;SDS011;47188;55.644;37.772;2022-08-21T04:10:37;62.45;;;47.03;;
61308;SDS011;47188;55.644;37.772;2022-08-21T04:13:05;63.78;;;48.67;;
61308;SDS011;47188;55.644;37.772;2022-08-21T04:15:32;60.83;;;47.22;;
61308;SDS011;47188;55.644;37.772;2022-08-21T04:17:58;60.20;;;48.28;;
61308;SDS011;47188;55.644;37.772;2022-08-21T04:20:24;62.33;;;49.58;;
61308;SDS011;47188;55.644;37.772;2022-08-21T04:22:51;62.47;;;48.92;;
61308;SDS011;47188;55.644;37.772;2022-08-21T04:25:18;64.85;;;49.90;;
61308;SDS011;47188;55.644;37.772;2022-08-21T04:27:46;67.75;;;52.42;;
61308;SDS011;47188;55.644;37.772;2022-08-21T04:30:12;63.92;;;50.85;;
61308;SDS011;47188;55.644;37.772;2022-08-21T04:32:41;63.22;;;50.78;;
61308;SDS011;47188;55.644;37.772;2022-08-21T04:35:09;63.10;;;50.00;;
61308;SDS011;47188;55.644;37.772;2022-08-21T04:37:36;64.07;;;52.30;;
61308;SDS011;47188;55.644;37.772;2022-08-21T04:40:02;67.18;;;54.30;;
61308;SDS011;47188;55.644;37.772;2022-08-21T04:42:29;65.53;;;52.42;;
61308;SDS011;47188;55.644;37.772;2022-08-21T04:44:55;66.90;;;52.45;;
61308;SDS011;47188;55.644;37.772;2022-08-21T04:47:22;68.20;;;53.13;;
61308;SDS011;47188;55.644;37.772;2022-08-21T04:49:48;64.93;;;53.00;;
61308;SDS011;47188;55.644;37.772;2022-08-21T04:52:15;70.18;;;53.60;;
61308;SDS011;47188;55.644;37.772;2022-08-21T04:54:43;64.72;;;53.33;;
61308;SDS011;47188;55.644;37.772;2022-08-21T04:57:10;67.80;;;53.97;;
61308;SDS011;47188;55.644;37.772;2022-08-21T04:59:40;68.15;;;57.17;;
61308;SDS011;47188;55.644;37.772;2022-08-21T05:02:08;70.50;;;55.70;;
61308;SDS011;47188;55.644;37.772;2022-08-21T05:04:38;69.32;;;55.35;;
61308;SDS011;47188;55.644;37.772;2022-08-21T05:07:09;68.03;;;55.20;;
61308;SDS011;47188;55.644;37.772;2022-08-21T05:09:36;69.38;;;56.00;;
61308;SDS011;47188;55.644;37.772;2022-08-21T05:12:02;71.18;;;55.63;;
61308;SDS011;47188;55.644;37.772;2022-08-21T05:14:28;64.97;;;55.25;;
61308;SDS011;47188;55.644;37.772;2022-08-21T05:16:54;68.22;;;52.22;;
61308;SDS011;47188;55.644;37.772;2022-08-21T05:19:20;75.82;;;57.10;;
61308;SDS011;47188;55.644;37.772;2022-08-21T05:21:46;67.10;;;53.50;;
61308;SDS011;47188;55.644;37.772;2022-08-21T05:24:15;67.05;;;52.92;;
61308;SDS011;47188;55.644;37.772;2022-08-21T05:26:41;73.70;;;56.17;;
61308;SDS011;47188;55.644;37.772;2022-08-21T05:29:07;68.93;;;53.95;;
61308;SDS011;47188;55.644;37.772;2022-08-21T05:31:33;65.90;;;54.83;;
61308;SDS011;47188;55.644;37.772;2022-08-21T05:33:59;67.63;;;52.53;;
61308;SDS011;47188;55.644;37.772;2022-08-21T05:36:25;69.57;;;53.45;;
61308;SDS011;47188;55.644;37.772;2022-08-21T05:38:51;67.43;;;53.67;;
61308;SDS011;47188;55.644;37.772;2022-08-21T05:41:16;64.15;;;52.83;;
61308;SDS011;47188;55.644;37.772;2022-08-21T05:43:42;60.83;;;51.40;;
61308;SDS011;47188;55.644;37.772;2022-08-21T05:46:08;70.80;;;54.90;;
61308;SDS011;47188;55.644;37.772;2022-08-21T05:48:34;67.03;;;54.45;;
61308;SDS011;47188;55.644;37.772;2022-08-21T05:51:05;68.88;;;53.63;;
61308;SDS011;47188;55.644;37.772;2022-08-21T05:53:32;69.93;;;52.00;;
61308;SDS011;47188;55.644;37.772;2022-08-21T05:55:58;64.25;;;54.10;;
61308;SDS011;47188;55.644;37.772;2022-08-21T05:58:24;67.97;;;54.28;;
61308;SDS011;47188;55.644;37.772;2022-08-21T06:00:51;71.13;;;57.70;;
61308;SDS011;47188;55.644;37.772;2022-08-21T06:03:21;67.68;;;52.83;;
61308;SDS011;47188;55.644;37.772;2022-08-21T06:05:48;69.20;;;54.28;;
61308;SDS011;47188;55.644;37.772;2022-08-21T06:08:15;64.30;;;55.08;;
61308;SDS011;47188;55.644;37.772;2022-08-21T06:10:42;66.13;;;52.17;;
61308;SDS011;47188;55.644;37.772;2022-08-21T06:13:08;69.80;;;54.42;;
61308;SDS011;47188;55.644;37.772;2022-08-21T06:15:34;72.75;;;56.88;;
61308;SDS011;47188;55.644;37.772;2022-08-21T06:18:00;78.10;;;63.15;;
61308;SDS011;47188;55.644;37.772;2022-08-21T06:20:25;101.00;;;82.80;;
61308;SDS011;47188;55.644;37.772;2022-08-21T06:22:51;66.05;;;54.75;;
61308;SDS011;47188;55.644;37.772;2022-08-21T06:25:17;76.78;;;58.50;;
61308;SDS011;47188;55.644;37.772;2022-08-21T06:27:44;78.78;;;64.72;;
61308;SDS011;47188;55.644;37.772;2022-08-21T06:30:10;135.27;;;111.35;;
61308;SDS011;47188;55.644;37.772;2022-08-21T06:32:36;59.75;;;48.80;;
61308;SDS011;47188;55.644;37.772;2022-08-21T06:35:03;70.35;;;57.80;;
61308;SDS011;47188;55.644;37.772;2022-08-21T06:37:29;76.65;;;63.33;;
61308;SDS011;47188;55.644;37.772;2022-08-21T06:39:55;60.70;;;49.75;;
61308;SDS011;47188;55.644;37.772;2022-08-21T06:42:20;62.70;;;50.08;;
61308;SDS011;47188;55.644;37.772;2022-08-21T06:44:46;67.82;;;54.75;;
61308;SDS011;47188;55.644;37.772;2022-08-21T06:47:13;59.13;;;47.47;;
61308;SDS011;47188;55.644;37.772;2022-08-21T06:49:38;57.55;;;46.85;;
61308;SDS011;47188;55.644;37.772;2022-08-21T06:52:08;61.63;;;47.70;;
61308;SDS011;47188;55.644;37.772;2022-08-21T06:54:37;56.63;;;46.97;;
61308;SDS011;47188;55.644;37.772;2022-08-21T06:57:03;57.55;;;46.03;;
61308;SDS011;47188;55.644;37.772;2022-08-21T06:59:30;57.85;;;48.13;;
61308;SDS011;47188;55.644;37.772;2022-08-21T07:01:57;61.35;;;45.63;;
61308;SDS011;47188;55.644;37.772;2022-08-21T07:04:23;61.85;;;46.95;;
61308;SDS011;47188;55.644;37.772;2022-08-21T07:06:49;72.68;;;62.03;;
61308;SDS011;47188;55.644;37.772;2022-08-21T07:09:15;64.45;;;51.83;;
61308;SDS011;47188;55.644;37.772;2022-08-21T07:11:41;55.90;;;46.63;;
61308;SDS011;47188;55.644;37.772;2022-08-21T07:14:07;60.38;;;49.10;;
61308;SDS011;47188;55.644;37.772;2022-08-21T07:16:33;74.07;;;55.92;;
61308;SDS011;47188;55.644;37.772;2022-08-21T07:18:59;80.85;;;59.75;;
61308;SDS011;47188;55.644;37.772;2022-08-21T07:21:25;57.92;;;48.13;;
61308;SDS011;47188;55.644;37.772;2022-08-21T07:23:51;74.95;;;66.53;;
61308;SDS011;47188;55.644;37.772;2022-08-21T07:26:18;55.22;;;47.47;;
61308;SDS011;47188;55.644;37.772;2022-08-21T07:28:46;49.33;;;39.03;;
61308;SDS011;47188;55.644;37.772;2022-08-21T07:31:13;49.80;;;40.58;;
61308;SDS011;47188;55.644;37.772;2022-08-21T07:33:41;54.05;;;44.40;;
61308;SDS011;47188;55.644;37.772;2022-08-21T07:36:08;55.47;;;45.95;;
61308;SDS011;47188;55.644;37.772;2022-08-21T07:38:34;54.20;;;42.38;;
61308;SDS011;47188;55.644;37.772;2022-08-21T07:41:00;62.10;;;47.58;;
61308;SDS011;47188;55.644;37.772;2022-08-21T07:43:27;56.97;;;41.65;;
61308;SDS011;47188;55.644;37.772;2022-08-21T07:45:54;51.20;;;41.40;;
61308;SDS011;47188;55.644;37.772;2022-08-21T07:48:21;53.78;;;41.63;;
61308;SDS011;47188;55.644;37.772;2022-08-21T07:50:47;58.42;;;42.25;;
61308;SDS011;47188;55.644;37.772;2022-08-21T07:53:13;54.55;;;40.45;;
61308;SDS011;47188;55.644;37.772;2022-08-21T07:55:39;53.65;;;38.35;;
61308;SDS011;47188;55.644;37.772;2022-08-21T07:58:05;48.00;;;35.92;;
61308;SDS011;47188;55.644;37.772;2022-08-21T08:00:32;43.45;;;33.08;;
61308;SDS011;47188;55.644;37.772;2022-08-21T08:02:58;43.90;;;31.10;;
61308;SDS011;47188;55.644;37.772;2022-08-21T08:05:26;41.97;;;31.13;;
61308;SDS011;47188;55.644;37.772;2022-08-21T08:07:53;40.80;;;29.60;;
61308;SDS011;47188;55.644;37.772;2022-08-21T08:10:20;38.85;;;29.70;;
61308;SDS011;47188;55.644;37.772;2022-08-21T08:12:46;37.20;;;26.92;;
61308;SDS011;47188;55.644;37.772;2022-08-21T08:15:20;43.60;;;27.48;;
61308;SDS011;47188;55.644;37.772;2022-08-21T08:17:47;29.52;;;24.70;;
61308;SDS011;47188;55.644;37.772;2022-08-21T08:20:14;32.70;;;26.17;;
61308;SDS011;47188;55.644;37.772;2022-08-21T08:22:41;34.70;;;25.63;;
61308;SDS011;47188;55.644;37.772;2022-08-21T08:25:08;35.42;;;25.40;;
61308;SDS011;47188;55.644;37.772;2022-08-21T08:27:37;35.13;;;26.67;;
61308;SDS011;47188;55.644;37.772;2022-08-21T08:30:07;35.55;;;28.08;;
61308;SDS011;47188;55.644;37.772;2022-08-21T08:32:36;36.88;;;26.73;;
61308;SDS011;47188;55.644;37.772;2022-08-21T08:35:02;35.80;;;24.38;;
61308;SDS011;47188;55.644;37.772;2022-08-21T08:37:29;33.45;;;26.58;;
61308;SDS011;47188;55.644;37.772;2022-08-21T08:39:55;33.60;;;26.35;;
61308;SDS011;47188;55.644;37.772;2022-08-21T08:42:25;37.13;;;25.58;;
61308;SDS011;47188;55.644;37.772;2022-08-21T08:45:02;30.77;;;23.60;;
61308;SDS011;47188;55.644;37.772;2022-08-21T08:47:29;33.30;;;24.88;;
61308;SDS011;47188;55.644;37.772;2022-08-21T08:52:29;30.55;;;24.30;;
61308;SDS011;47188;55.644;37.772;2022-08-21T08:55:09;32.65;;;23.17;;
61308;SDS011;47188;55.644;37.772;2022-08-21T08:57:39;31.85;;;22.20;;
61308;SDS011;47188;55.644;37.772;2022-08-21T09:00:10;30.30;;;21.02;;
61308;SDS011;47188;55.644;37.772;2022-08-21T09:02:41;29.27;;;19.85;;
61308;SDS011;47188;55.644;37.772;2022-08-21T09:05:20;35.33;;;21.73;;
61308;SDS011;47188;55.644;37.772;2022-08-21T09:08:14;37.42;;;21.08;;
61308;SDS011;47188;55.644;37.772;2022-08-21T09:13:29;23.67;;;19.70;;
61308;SDS011;47188;55.644;37.772;2022-08-21T09:19:16;29.85;;;20.40;;
61308;SDS011;47188;55.644;37.772;2022-08-21T09:27:34;31.65;;;20.85;;
61308;SDS011;47188;55.644;37.772;2022-08-21T09:30:02;28.23;;;20.38;;
61308;SDS011;47188;55.644;37.772;2022-08-21T09:32:31;29.95;;;19.77;;
61308;SDS011;47188;55.644;37.772;2022-08-21T09:34:59;25.02;;;18.98;;
61308;SDS011;47188;55.644;37.772;2022-08-21T09:37:26;27.05;;;19.38;;
61308;SDS011;47188;55.644;37.772;2022-08-21T09:39:54;25.92;;;18.00;;
61308;SDS011;47188;55.644;37.772;2022-08-21T09:42:30;27.98;;;18.35;;
61308;SDS011;47188;55.644;37.772;2022-08-21T09:45:10;27.98;;;18.73;;
61308;SDS011;47188;55.644;37.772;2022-08-21T09:47:39;26.42;;;19.63;;
61308;SDS011;47188;55.644;37.772;2022-08-21T09:50:13;30.45;;;19.25;;
61308;SDS011;47188;55.644;37.772;2022-08-21T09:52:51;23.42;;;19.63;;
61308;SDS011;47188;55.644;37.772;2022-08-21T09:55:23;23.40;;;17.75;;
61308;SDS011;47188;55.644;37.772;2022-08-21T09:58:14;34.17;;;28.25;;
61308;SDS011;47188;55.644;37.772;2022-08-21T10:00:41;49.45;;;40.15;;
61308;SDS011;47188;55.644;37.772;2022-08-21T10:03:11;21.33;;;16.52;;
61308;SDS011;47188;55.644;37.772;2022-08-21T10:06:04;24.63;;;16.35;;
61308;SDS011;47188;55.644;37.772;2022-08-21T10:08:36;28.65;;;23.38;;
61308;SDS011;47188;55.644;37.772;2022-08-21T10:11:07;21.42;;;14.00;;
61308;SDS011;47188;55.644;37.772;2022-08-21T10:21:56;16.63;;;8.05;;
61308;SDS011;47188;55.644;37.772;2022-08-21T10:27:47;14.88;;;8.10;;
61308;SDS011;47188;55.644;37.772;2022-08-21T10:30:20;11.23;;;7.45;;
61308;SDS011;47188;55.644;37.772;2022-08-21T10:35:27;13.95;;;6.55;;
61308;SDS011;47188;55.644;37.772;2022-08-21T10:41:01;12.02;;;5.22;;
61308;SDS011;47188;55.644;37.772;2022-08-21T10:49:06;11.77;;;4.82;;
61308;SDS011;47188;55.644;37.772;2022-08-21T10:54:16;8.88;;;4.57;;
61308;SDS011;47188;55.644;37.772;2022-08-21T11:10:04;16.83;;;9.90;;
61308;SDS011;47188;55.644;37.772;2022-08-21T11:15:27;15.73;;;12.52;;
61308;SDS011;47188;55.644;37.772;2022-08-21T11:17:54;20.73;;;13.55;;
61308;SDS011;47188;55.644;37.772;2022-08-21T11:20:36;18.52;;;14.77;;
61308;SDS011;47188;55.644;37.772;2022-08-21T11:23:23;22.10;;;15.60;;
61308;SDS011;47188;55.644;37.772;2022-08-21T11:26:02;23.55;;;17.30;;
61308;SDS011;47188;55.644;37.772;2022-08-21T11:28:45;28.08;;;18.25;;
61308;SDS011;47188;55.644;37.772;2022-08-21T11:31:18;29.98;;;18.70;;
61308;SDS011;47188;55.644;37.772;2022-08-21T11:34:05;28.20;;;17.65;;
61308;SDS011;47188;55.644;37.772;2022-08-21T11:37:01;25.20;;;18.65;;
61308;SDS011;47188;55.644;37.772;2022-08-21T11:47:49;21.83;;;14.88;;
61308;SDS011;47188;55.644;37.772;2022-08-21T11:50:31;25.65;;;15.07;;
61308;SDS011;47188;55.644;37.772;2022-08-21T11:53:03;18.08;;;15.27;;
61308;SDS011;47188;55.644;37.772;2022-08-21T11:58:06;21.20;;;13.32;;
61308;SDS011;47188;55.644;37.772;2022-08-21T12:00:56;20.40;;;12.90;;
61308;SDS011;47188;55.644;37.772;2022-08-21T12:04:00;19.73;;;11.73;;
61308;SDS011;47188;55.644;37.772;2022-08-21T12:06:30;18.58;;;12.80;;
61308;SDS011;47188;55.644;37.772;2022-08-21T12:09:05;22.87;;;12.97;;
61308;SDS011;47188;55.644;37.772;2022-08-21T12:11:45;19.63;;;12.95;;
61308;SDS011;47188;55.644;37.772;2022-08-21T12:14:16;24.17;;;12.95;;
61308;SDS011;47188;55.644;37.772;2022-08-21T12:16:47;16.95;;;12.73;;
61308;SDS011;47188;55.644;37.772;2022-08-21T12:21:51;20.70;;;12.63;;
61308;SDS011;47188;55.644;37.772;2022-08-21T12:32:26;18.35;;;11.20;;
61308;SDS011;47188;55.644;37.772;2022-08-21T12:35:09;14.38;;;10.50;;
61308;SDS011;47188;55.644;37.772;2022-08-21T12:40:14;17.58;;;10.65;;
61308;SDS011;47188;55.644;37.772;2022-08-21T12:42:46;21.48;;;10.63;;
61308;SDS011;47188;55.644;37.772;2022-08-21T12:45:28;15.98;;;10.68;;
61308;SDS011;47188;55.644;37.772;2022-08-21T12:50:40;18.92;;;10.75;;
61308;SDS011;47188;55.644;37.772;2022-08-21T12:53:56;18.40;;;9.40;;
61308;SDS011;47188;55.644;37.772;2022-08-21T12:55:55;15.50;;;9.02;;
61308;SDS011;47188;55.644;37.772;2022-08-21T12:58:26;16.10;;;8.80;;
61308;SDS011;47188;55.644;37.772;2022-08-21T13:00:54;28.75;;;21.30;;
61308;SDS011;47188;55.644;37.772;2022-08-21T13:03:22;17.65;;;14.70;;
61308;SDS011;47188;55.644;37.772;2022-08-21T13:05:49;13.10;;;7.43;;
61308;SDS011;47188;55.644;37.772;2022-08-21T13:08:18;15.57;;;7.50;;
61308;SDS011;47188;55.644;37.772;2022-08-21T13:10:45;15.73;;;7.95;;
61308;SDS011;47188;55.644;37.772;2022-08-21T13:13:16;10.75;;;6.60;;
61308;SDS011;47188;55.644;37.772;2022-08-21T13:15:46;13.00;;;6.45;;
61308;SDS011;47188;55.644;37.772;2022-08-21T13:18:20;16.17;;;7.78;;
61308;SDS011;47188;55.644;37.772;2022-08-21T13:20:47;14.90;;;7.13;;
61308;SDS011;47188;55.644;37.772;2022-08-21T13:25:49;14.43;;;7.00;;
61308;SDS011;47188;55.644;37.772;2022-08-21T13:28:15;14.00;;;7.07;;
61308;SDS011;47188;55.644;37.772;2022-08-21T13:30:42;13.10;;;7.80;;
61308;SDS011;47188;55.644;37.772;2022-08-21T13:33:14;21.27;;;7.90;;
61308;SDS011;47188;55.644;37.772;2022-08-21T13:36:01;17.15;;;7.65;;
61308;SDS011;47188;55.644;37.772;2022-08-21T13:38:30;12.70;;;9.02;;
61308;SDS011;47188;55.644;37.772;2022-08-21T13:41:43;27.17;;;8.10;;
61308;SDS011;47188;55.644;37.772;2022-08-21T13:43:59;15.52;;;7.65;;
61308;SDS011;47188;55.644;37.772;2022-08-21T13:46:29;17.98;;;7.82;;
61308;SDS011;47188;55.644;37.772;2022-08-21T13:48:58;16.95;;;11.05;;
61308;SDS011;47188;55.644;37.772;2022-08-21T13:51:25;19.65;;;8.25;;
61308;SDS011;47188;55.644;37.772;2022-08-21T13:53:51;14.73;;;7.55;;
61308;SDS011;47188;55.644;37.772;2022-08-21T13:56:28;12.70;;;6.57;;
61308;SDS011;47188;55.644;37.772;2022-08-21T13:58:55;19.40;;;6.25;;
61308;SDS011;47188;55.644;37.772;2022-08-21T14:01:36;14.07;;;5.05;;
61308;SDS011;47188;55.644;37.772;2022-08-21T14:07:42;19.58;;;11.68;;
61308;SDS011;47188;55.644;37.772;2022-08-21T14:10:08;11.45;;;4.07;;
61308;SDS011;47188;55.644;37.772;2022-08-21T14:12:45;14.32;;;8.70;;
61308;SDS011;47188;55.644;37.772;2022-08-21T14:15:14;9.95;;;3.85;;
61308;SDS011;47188;55.644;37.772;2022-08-21T14:17:42;13.88;;;3.20;;
61308;SDS011;47188;55.644;37.772;2022-08-21T14:20:11;7.32;;;3.40;;
61308;SDS011;47188;55.644;37.772;2022-08-21T14:27:44;15.10;;;4.10;;
61308;SDS011;47188;55.644;37.772;2022-08-21T14:30:20;9.32;;;2.25;;
61308;SDS011;47188;55.644;37.772;2022-08-21T14:32:47;12.23;;;3.72;;
61308;SDS011;47188;55.644;37.772;2022-08-21T14:35:13;10.82;;;1.75;;
61308;SDS011;47188;55.644;37.772;2022-08-21T14:37:45;6.72;;;3.35;;
61308;SDS011;47188;55.644;37.772;2022-08-21T14:40:11;8.82;;;2.75;;
61308;SDS011;47188;55.644;37.772;2022-08-21T14:42:37;6.82;;;2.28;;
61308;SDS011;47188;55.644;37.772;2022-08-21T14:45:10;12.05;;;4.25;;
61308;SDS011;47188;55.644;37.772;2022-08-21T14:47:42;9.18;;;2.10;;
61308;SDS011;47188;55.644;37.772;2022-08-21T14:50:12;4.88;;;2.90;;
61308;SDS011;47188;55.644;37.772;2022-08-21T14:52:39;74.35;;;53.80;;
61308;SDS011;47188;55.644;37.772;2022-08-21T14:55:06;10.93;;;1.65;;
61308;SDS011;47188;55.644;37.772;2022-08-21T14:57:36;8.35;;;2.60;;
61308;SDS011;47188;55.644;37.772;2022-08-21T15:00:03;6.75;;;2.33;;
61308;SDS011;47188;55.644;37.772;2022-08-21T15:02:30;7.80;;;2.00;;
61308;SDS011;47188;55.644;37.772;2022-08-21T15:04:56;6.32;;;2.70;;
61308;SDS011;47188;55.644;37.772;2022-08-21T15:07:22;8.55;;;2.75;;
61308;SDS011;47188;55.644;37.772;2022-08-21T15:09:48;7.97;;;3.15;;
61308;SDS011;47188;55.644;37.772;2022-08-21T15:12:14;7.60;;;2.30;;
61308;SDS011;47188;55.644;37.772;2022-08-21T15:14:40;13.75;;;3.60;;
61308;SDS011;47188;55.644;37.772;2022-08-21T15:17:07;20.38;;;6.47;;
61308;SDS011;47188;55.644;37.772;2022-08-21T15:19:34;66.22;;;29.48;;
61308;SDS011;47188;55.644;37.772;2022-08-21T15:22:00;21.83;;;9.15;;
61308;SDS011;47188;55.644;37.772;2022-08-21T15:24:26;32.10;;;9.95;;
61308;SDS011;47188;55.644;37.772;2022-08-21T15:26:52;361.75;;;295.80;;
61308;SDS011;47188;55.644;37.772;2022-08-21T15:29:19;114.97;;;76.90;;
61308;SDS011;47188;55.644;37.772;2022-08-21T15:31:56;37.28;;;19.92;;
61308;SDS011;47188;55.644;37.772;2022-08-21T15:34:24;16.17;;;4.10;;
61308;SDS011;47188;55.644;37.772;2022-08-21T15:36:56;22.98;;;11.80;;
61308;SDS011;47188;55.644;37.772;2022-08-21T15:39:24;34.38;;;20.48;;
61308;SDS011;47188;55.644;37.772;2022-08-21T15:41:51;8.18;;;2.72;;
61308;SDS011;47188;55.644;37.772;2022-08-21T15:44:17;19.13;;;10.07;;
61308;SDS011;47188;55.644;37.772;2022-08-21T15:46:43;21.88;;;9.95;;
61308;SDS011;47188;55.644;37.772;2022-08-21T15:49:10;12.05;;;3.08;;
61308;SDS011;47188;55.644;37.772;2022-08-21T15:51:36;13.15;;;5.43;;
61308;SDS011;47188;55.644;37.772;2022-08-21T15:54:01;14.55;;;4.88;;
61308;SDS011;47188;55.644;37.772;2022-08-21T15:56:38;18.25;;;6.63;;